sensor_id;sensor_type;location;lat;lon;timestamp;pressure;altitude;pressure_sealevel;temperature
71649;BMP180;59492;45.638;11.714;2023-02-19T00:00:06;101977.20;;;17.90
71649;BMP180;59492;45.638;11.714;2023-02-19T00:02:33;101972.00;;;17.90
71649;BMP180;59492;45.638;11.714;2023-02-19T00:04:59;101966.00;;;17.98
71649;BMP180;59492;45.638;11.714;2023-02-19T00:07:31;101965.00;;;18.00
71649;BMP180;59492;45.638;11.714;2023-02-19T00:09:56;101969.40;;;18.00
71649;BMP180;59492;45.638;11.714;2023-02-19T00:12:30;101964.60;;;17.96
71649;BMP180;59492;45.638;11.714;2023-02-19T00:14:57;101967.80;;;17.90
71649;BMP180;59492;45.638;11.714;2023-02-19T00:17:25;101968.40;;;17.90
71649;BMP180;59492;45.638;11.714;2023-02-19T00:19:51;101967.80;;;17.90
71649;BMP180;59492;45.638;11.714;2023-02-19T00:22:16;101962.80;;;17.90
71649;BMP180;59492;45.638;11.714;2023-02-19T00:24:47;101959.40;;;17.90
71649;BMP180;59492;45.638;11.714;2023-02-19T00:27:13;101956.80;;;17.90
71649;BMP180;59492;45.638;11.714;2023-02-19T00:29:39;101957.80;;;17.90
71649;BMP180;59492;45.638;11.714;2023-02-19T00:32:04;101955.00;;;17.90
71649;BMP180;59492;45.638;11.714;2023-02-19T00:34:30;101954.40;;;17.88
71649;BMP180;59492;45.638;11.714;2023-02-19T00:36:56;101961.00;;;17.86
71649;BMP180;59492;45.638;11.714;2023-02-19T00:39:21;101956.40;;;17.82
71649;BMP180;59492;45.638;11.714;2023-02-19T00:41:47;101953.80;;;17.80
71649;BMP180;59492;45.638;11.714;2023-02-19T00:44:13;101954.80;;;17.80
71649;BMP180;59492;45.638;11.714;2023-02-19T00:46:42;101953.40;;;17.90
71649;BMP180;59492;45.638;11.714;2023-02-19T00:49:10;101950.60;;;17.90
71649;BMP180;59492;45.638;11.714;2023-02-19T00:51:38;101954.80;;;17.90
71649;BMP180;59492;45.638;11.714;2023-02-19T00:54:06;101950.60;;;17.90
71649;BMP180;59492;45.638;11.714;2023-02-19T00:56:37;101950.60;;;17.86
71649;BMP180;59492;45.638;11.714;2023-02-19T00:59:02;101949.80;;;17.84
71649;BMP180;59492;45.638;11.714;2023-02-19T01:01:28;101947.20;;;17.82
71649;BMP180;59492;45.638;11.714;2023-02-19T01:03:56;101949.60;;;17.80
71649;BMP180;59492;45.638;11.714;2023-02-19T01:06:22;101946.60;;;17.80
71649;BMP180;59492;45.638;11.714;2023-02-19T01:08:48;101946.00;;;17.82
71649;BMP180;59492;45.638;11.714;2023-02-19T01:11:19;101947.20;;;17.80
71649;BMP180;59492;45.638;11.714;2023-02-19T01:13:45;101943.20;;;17.80
71649;BMP180;59492;45.638;11.714;2023-02-19T01:16:16;101940.60;;;17.80
71649;BMP180;59492;45.638;11.714;2023-02-19T01:18:42;101932.80;;;17.80
71649;BMP180;59492;45.638;11.714;2023-02-19T01:21:13;101935.80;;;17.80
71649;BMP180;59492;45.638;11.714;2023-02-19T01:23:43;101927.60;;;17.80
71649;BMP180;59492;45.638;11.714;2023-02-19T01:26:14;101928.20;;;17.80
71649;BMP180;59492;45.638;11.714;2023-02-19T01:28:41;101929.60;;;17.80
71649;BMP180;59492;45.638;11.714;2023-02-19T01:31:09;101927.60;;;17.90
71649;BMP180;59492;45.638;11.714;2023-02-19T01:33:36;101923.60;;;17.86
71649;BMP180;59492;45.638;11.714;2023-02-19T01:36:07;101921.00;;;17.84
71649;BMP180;59492;45.638;11.714;2023-02-19T01:38:33;101918.40;;;17.80
71649;BMP180;59492;45.638;11.714;2023-02-19T01:41:01;101917.00;;;17.80
71649;BMP180;59492;45.638;11.714;2023-02-19T01:43:28;101917.60;;;17.80
71649;BMP180;59492;45.638;11.714;2023-02-19T01:45:54;101918.40;;;17.80
71649;BMP180;59492;45.638;11.714;2023-02-19T01:48:24;101908.80;;;17.80
71649;BMP180;59492;45.638;11.714;2023-02-19T01:51:15;101903.40;;;17.80
71649;BMP180;59492;45.638;11.714;2023-02-19T01:53:54;101902.60;;;17.76
71649;BMP180;59492;45.638;11.714;2023-02-19T01:56:21;101903.80;;;17.76
71649;BMP180;59492;45.638;11.714;2023-02-19T01:58:48;101901.40;;;17.80
71649;BMP180;59492;45.638;11.714;2023-02-19T02:01:16;101893.60;;;17.78
71649;BMP180;59492;45.638;11.714;2023-02-19T02:03:43;101892.80;;;17.74
71649;BMP180;59492;45.638;11.714;2023-02-19T02:08:48;101886.20;;;17.70
71649;BMP180;59492;45.638;11.714;2023-02-19T02:11:37;101886.60;;;17.70
71649;BMP180;59492;45.638;11.714;2023-02-19T02:14:05;101884.00;;;17.80
71649;BMP180;59492;45.638;11.714;2023-02-19T02:22:21;101877.20;;;17.80
71649;BMP180;59492;45.638;11.714;2023-02-19T02:27:55;101875.00;;;17.70
71649;BMP180;59492;45.638;11.714;2023-02-19T02:31:03;101875.60;;;17.70
71649;BMP180;59492;45.638;11.714;2023-02-19T02:36:40;101872.60;;;17.70
71649;BMP180;59492;45.638;11.714;2023-02-19T02:39:10;101867.80;;;17.70
71649;BMP180;59492;45.638;11.714;2023-02-19T02:41:48;101860.00;;;17.70
71649;BMP180;59492;45.638;11.714;2023-02-19T02:44:35;101859.60;;;17.70
71649;BMP180;59492;45.638;11.714;2023-02-19T02:47:02;101851.80;;;17.70
71649;BMP180;59492;45.638;11.714;2023-02-19T02:49:29;101847.40;;;17.70
71649;BMP180;59492;45.638;11.714;2023-02-19T02:51:57;101844.80;;;17.70
71649;BMP180;59492;45.638;11.714;2023-02-19T02:54:29;101841.60;;;17.70
71649;BMP180;59492;45.638;11.714;2023-02-19T02:57:23;101840.40;;;17.62
71649;BMP180;59492;45.638;11.714;2023-02-19T02:59:51;101836.80;;;17.70
71649;BMP180;59492;45.638;11.714;2023-02-19T03:02:21;101832.00;;;17.70
71649;BMP180;59492;45.638;11.714;2023-02-19T03:07:49;101829.80;;;17.70
71649;BMP180;59492;45.638;11.714;2023-02-19T03:10:22;101828.20;;;17.74
71649;BMP180;59492;45.638;11.714;2023-02-19T03:12:50;101824.80;;;17.70
71649;BMP180;59492;45.638;11.714;2023-02-19T03:15:42;101823.80;;;17.70
71649;BMP180;59492;45.638;11.714;2023-02-19T03:18:35;101827.20;;;17.70
71649;BMP180;59492;45.638;11.714;2023-02-19T03:21:24;101824.00;;;17.68
71649;BMP180;59492;45.638;11.714;2023-02-19T03:23:52;101828.20;;;17.70
71649;BMP180;59492;45.638;11.714;2023-02-19T03:26:40;101824.40;;;17.62
71649;BMP180;59492;45.638;11.714;2023-02-19T03:29:10;101820.00;;;17.68
71649;BMP180;59492;45.638;11.714;2023-02-19T03:32:00;101818.00;;;17.62
71649;BMP180;59492;45.638;11.714;2023-02-19T03:34:32;101811.80;;;17.60
71649;BMP180;59492;45.638;11.714;2023-02-19T03:37:12;101811.60;;;17.60
71649;BMP180;59492;45.638;11.714;2023-02-19T03:39:40;101809.60;;;17.60
71649;BMP180;59492;45.638;11.714;2023-02-19T03:44:52;101810.80;;;17.60
71649;BMP180;59492;45.638;11.714;2023-02-19T03:47:27;101809.80;;;17.60
71649;BMP180;59492;45.638;11.714;2023-02-19T03:52:43;101814.60;;;17.60
71649;BMP180;59492;45.638;11.714;2023-02-19T03:55:25;101815.80;;;17.60
71649;BMP180;59492;45.638;11.714;2023-02-19T03:58:06;101811.00;;;17.70
71649;BMP180;59492;45.638;11.714;2023-02-19T04:04:06;101801.80;;;17.62
71649;BMP180;59492;45.638;11.714;2023-02-19T04:06:21;101801.00;;;17.60
71649;BMP180;59492;45.638;11.714;2023-02-19T04:08:51;101803.00;;;17.60
71649;BMP180;59492;45.638;11.714;2023-02-19T04:11:19;101811.80;;;17.60
71649;BMP180;59492;45.638;11.714;2023-02-19T04:13:54;101819.00;;;17.60
71649;BMP180;59492;45.638;11.714;2023-02-19T04:16:25;101820.60;;;17.60
71649;BMP180;59492;45.638;11.714;2023-02-19T04:18:56;101818.40;;;17.60
71649;BMP180;59492;45.638;11.714;2023-02-19T04:21:24;101815.20;;;17.60
71649;BMP180;59492;45.638;11.714;2023-02-19T04:23:51;101813.00;;;17.60
71649;BMP180;59492;45.638;11.714;2023-02-19T04:26:19;101811.60;;;17.60
71649;BMP180;59492;45.638;11.714;2023-02-19T04:28:49;101807.00;;;17.60
71649;BMP180;59492;45.638;11.714;2023-02-19T04:31:17;101808.80;;;17.60
71649;BMP180;59492;45.638;11.714;2023-02-19T04:33:46;101809.00;;;17.56
71649;BMP180;59492;45.638;11.714;2023-02-19T04:36:12;101807.80;;;17.58
71649;BMP180;59492;45.638;11.714;2023-02-19T04:38:38;101806.80;;;17.54
71649;BMP180;59492;45.638;11.714;2023-02-19T04:41:03;101802.40;;;17.56
71649;BMP180;59492;45.638;11.714;2023-02-19T04:43:32;101802.80;;;17.60
71649;BMP180;59492;45.638;11.714;2023-02-19T04:45:59;101801.40;;;17.62
71649;BMP180;59492;45.638;11.714;2023-02-19T04:48:30;101800.00;;;17.62
71649;BMP180;59492;45.638;11.714;2023-02-19T04:50:55;101799.40;;;17.60
71649;BMP180;59492;45.638;11.714;2023-02-19T04:53:21;101794.80;;;17.60
71649;BMP180;59492;45.638;11.714;2023-02-19T04:55:47;101799.00;;;17.60
71649;BMP180;59492;45.638;11.714;2023-02-19T04:58:13;101800.80;;;17.60
71649;BMP180;59492;45.638;11.714;2023-02-19T05:00:39;101795.80;;;17.60
71649;BMP180;59492;45.638;11.714;2023-02-19T05:03:07;101795.20;;;17.60
71649;BMP180;59492;45.638;11.714;2023-02-19T05:05:34;101793.20;;;17.60
71649;BMP180;59492;45.638;11.714;2023-02-19T05:08:00;101787.20;;;17.58
71649;BMP180;59492;45.638;11.714;2023-02-19T05:10:25;101784.20;;;17.54
71649;BMP180;59492;45.638;11.714;2023-02-19T05:12:51;101781.40;;;17.54
71649;BMP180;59492;45.638;11.714;2023-02-19T05:15:18;101780.60;;;17.54
71649;BMP180;59492;45.638;11.714;2023-02-19T05:17:44;101774.20;;;17.50
71649;BMP180;59492;45.638;11.714;2023-02-19T05:20:12;101771.00;;;17.50
71649;BMP180;59492;45.638;11.714;2023-02-19T05:22:49;101777.20;;;17.50
71649;BMP180;59492;45.638;11.714;2023-02-19T05:25:17;101787.80;;;17.50
71649;BMP180;59492;45.638;11.714;2023-02-19T05:27:43;101790.40;;;17.50
71649;BMP180;59492;45.638;11.714;2023-02-19T05:30:09;101788.60;;;17.50
71649;BMP180;59492;45.638;11.714;2023-02-19T05:32:37;101784.60;;;17.50
71649;BMP180;59492;45.638;11.714;2023-02-19T05:35:03;101785.20;;;17.50
71649;BMP180;59492;45.638;11.714;2023-02-19T05:37:29;101780.60;;;17.60
71649;BMP180;59492;45.638;11.714;2023-02-19T05:39:54;101782.60;;;17.60
71649;BMP180;59492;45.638;11.714;2023-02-19T05:42:23;101775.40;;;17.56
71649;BMP180;59492;45.638;11.714;2023-02-19T05:44:48;101771.00;;;17.50
71649;BMP180;59492;45.638;11.714;2023-02-19T05:47:14;101770.00;;;17.50
71649;BMP180;59492;45.638;11.714;2023-02-19T05:49:42;101766.40;;;17.50
71649;BMP180;59492;45.638;11.714;2023-02-19T05:52:07;101757.60;;;17.50
71649;BMP180;59492;45.638;11.714;2023-02-19T05:54:36;101744.60;;;17.50
71649;BMP180;59492;45.638;11.714;2023-02-19T05:57:04;101741.20;;;17.50
71649;BMP180;59492;45.638;11.714;2023-02-19T05:59:29;101744.20;;;17.50
71649;BMP180;59492;45.638;11.714;2023-02-19T06:01:56;101750.60;;;17.50
71649;BMP180;59492;45.638;11.714;2023-02-19T06:04:25;101757.00;;;17.50
71649;BMP180;59492;45.638;11.714;2023-02-19T06:06:50;101758.00;;;17.48
71649;BMP180;59492;45.638;11.714;2023-02-19T06:09:17;101760.00;;;17.48
71649;BMP180;59492;45.638;11.714;2023-02-19T06:11:42;101756.20;;;17.48
71649;BMP180;59492;45.638;11.714;2023-02-19T06:14:10;101756.40;;;17.44
71649;BMP180;59492;45.638;11.714;2023-02-19T06:16:36;101744.60;;;17.42
71649;BMP180;59492;45.638;11.714;2023-02-19T06:19:03;101746.40;;;17.40
71649;BMP180;59492;45.638;11.714;2023-02-19T06:21:31;101752.40;;;17.42
71649;BMP180;59492;45.638;11.714;2023-02-19T06:23:56;101748.40;;;17.50
71649;BMP180;59492;45.638;11.714;2023-02-19T06:26:23;101748.80;;;17.50
71649;BMP180;59492;45.638;11.714;2023-02-19T06:28:50;101748.00;;;17.50
71649;BMP180;59492;45.638;11.714;2023-02-19T06:31:18;101750.60;;;17.50
71649;BMP180;59492;45.638;11.714;2023-02-19T06:33:44;101753.00;;;17.50
71649;BMP180;59492;45.638;11.714;2023-02-19T06:36:12;101758.00;;;17.50
71649;BMP180;59492;45.638;11.714;2023-02-19T06:38:38;101760.80;;;17.50
71649;BMP180;59492;45.638;11.714;2023-02-19T06:41:05;101764.20;;;17.50
71649;BMP180;59492;45.638;11.714;2023-02-19T06:43:32;101767.40;;;17.48
71649;BMP180;59492;45.638;11.714;2023-02-19T06:45:58;101757.20;;;17.50
71649;BMP180;59492;45.638;11.714;2023-02-19T06:48:25;101751.60;;;17.46
71649;BMP180;59492;45.638;11.714;2023-02-19T06:50:51;101755.80;;;17.42
71649;BMP180;59492;45.638;11.714;2023-02-19T06:53:17;101755.80;;;17.42
71649;BMP180;59492;45.638;11.714;2023-02-19T06:55:54;101761.20;;;17.42
71649;BMP180;59492;45.638;11.714;2023-02-19T06:58:22;101759.40;;;17.40
71649;BMP180;59492;45.638;11.714;2023-02-19T07:00:47;101759.80;;;17.40
71649;BMP180;59492;45.638;11.714;2023-02-19T07:03:16;101759.80;;;17.40
71649;BMP180;59492;45.638;11.714;2023-02-19T07:05:46;101766.00;;;17.40
71649;BMP180;59492;45.638;11.714;2023-02-19T07:08:12;101760.20;;;17.40
71649;BMP180;59492;45.638;11.714;2023-02-19T07:10:43;101753.00;;;17.40
71649;BMP180;59492;45.638;11.714;2023-02-19T07:13:10;101755.20;;;17.40
71649;BMP180;59492;45.638;11.714;2023-02-19T07:15:40;101760.60;;;17.40
71649;BMP180;59492;45.638;11.714;2023-02-19T07:18:25;101764.60;;;17.50
71649;BMP180;59492;45.638;11.714;2023-02-19T07:20:51;101778.80;;;17.50
71649;BMP180;59492;45.638;11.714;2023-02-19T07:23:22;101779.20;;;17.50
71649;BMP180;59492;45.638;11.714;2023-02-19T07:25:48;101771.60;;;17.48
71649;BMP180;59492;45.638;11.714;2023-02-19T07:28:14;101773.00;;;17.46
71649;BMP180;59492;45.638;11.714;2023-02-19T07:30:41;101771.80;;;17.40
71649;BMP180;59492;45.638;11.714;2023-02-19T07:33:07;101777.80;;;17.42
71649;BMP180;59492;45.638;11.714;2023-02-19T07:35:39;101775.60;;;17.40
71649;BMP180;59492;45.638;11.714;2023-02-19T07:38:21;101776.00;;;17.40
71649;BMP180;59492;45.638;11.714;2023-02-19T07:41:05;101772.40;;;17.40
71649;BMP180;59492;45.638;11.714;2023-02-19T07:43:34;101779.20;;;17.40
71649;BMP180;59492;45.638;11.714;2023-02-19T07:46:13;101774.00;;;17.40
71649;BMP180;59492;45.638;11.714;2023-02-19T07:48:53;101761.00;;;17.40
71649;BMP180;59492;45.638;11.714;2023-02-19T07:51:26;101760.20;;;17.40
71649;BMP180;59492;45.638;11.714;2023-02-19T07:53:55;101752.60;;;17.40
71649;BMP180;59492;45.638;11.714;2023-02-19T07:56:25;101762.20;;;17.40
71649;BMP180;59492;45.638;11.714;2023-02-19T07:58:56;101768.40;;;17.40
71649;BMP180;59492;45.638;11.714;2023-02-19T08:01:23;101767.80;;;17.40
71649;BMP180;59492;45.638;11.714;2023-02-19T08:04:08;101772.60;;;17.40
71649;BMP180;59492;45.638;11.714;2023-02-19T08:06:40;101766.20;;;17.50
71649;BMP180;59492;45.638;11.714;2023-02-19T08:09:06;101764.20;;;17.50
71649;BMP180;59492;45.638;11.714;2023-02-19T08:11:32;101762.60;;;17.50
71649;BMP180;59492;45.638;11.714;2023-02-19T08:14:24;101762.00;;;17.50
71649;BMP180;59492;45.638;11.714;2023-02-19T08:16:54;101766.40;;;17.50
71649;BMP180;59492;45.638;11.714;2023-02-19T08:19:20;101768.60;;;17.50
71649;BMP180;59492;45.638;11.714;2023-02-19T08:21:49;101774.60;;;17.50
71649;BMP180;59492;45.638;11.714;2023-02-19T08:24:15;101770.20;;;17.50
71649;BMP180;59492;45.638;11.714;2023-02-19T08:26:41;101765.60;;;17.50
71649;BMP180;59492;45.638;11.714;2023-02-19T08:29:07;101763.00;;;17.50
71649;BMP180;59492;45.638;11.714;2023-02-19T08:31:35;101777.60;;;17.50
71649;BMP180;59492;45.638;11.714;2023-02-19T08:34:06;101779.80;;;17.50
71649;BMP180;59492;45.638;11.714;2023-02-19T08:36:48;101778.00;;;17.50
71649;BMP180;59492;45.638;11.714;2023-02-19T08:39:40;101781.20;;;17.50
71649;BMP180;59492;45.638;11.714;2023-02-19T08:42:31;101779.00;;;17.46
71649;BMP180;59492;45.638;11.714;2023-02-19T08:45:21;101783.60;;;17.50
71649;BMP180;59492;45.638;11.714;2023-02-19T08:47:59;101787.00;;;17.46
71649;BMP180;59492;45.638;11.714;2023-02-19T08:50:25;101784.60;;;17.50
71649;BMP180;59492;45.638;11.714;2023-02-19T08:52:52;101789.20;;;17.50
71649;BMP180;59492;45.638;11.714;2023-02-19T08:55:18;101783.20;;;17.50
71649;BMP180;59492;45.638;11.714;2023-02-19T08:57:43;101773.60;;;17.60
71649;BMP180;59492;45.638;11.714;2023-02-19T09:00:10;101770.60;;;17.60
71649;BMP180;59492;45.638;11.714;2023-02-19T09:02:36;101774.00;;;17.60
71649;BMP180;59492;45.638;11.714;2023-02-19T09:05:02;101786.00;;;17.60
71649;BMP180;59492;45.638;11.714;2023-02-19T09:07:29;101792.40;;;17.60
71649;BMP180;59492;45.638;11.714;2023-02-19T09:09:54;101786.20;;;17.60
71649;BMP180;59492;45.638;11.714;2023-02-19T09:12:23;101780.00;;;17.60
71649;BMP180;59492;45.638;11.714;2023-02-19T09:14:49;101781.00;;;17.60
71649;BMP180;59492;45.638;11.714;2023-02-19T09:17:15;101780.80;;;17.60
71649;BMP180;59492;45.638;11.714;2023-02-19T09:19:41;101769.20;;;17.60
71649;BMP180;59492;45.638;11.714;2023-02-19T09:22:06;101772.80;;;17.60
71649;BMP180;59492;45.638;11.714;2023-02-19T09:24:32;101775.20;;;17.58
71649;BMP180;59492;45.638;11.714;2023-02-19T09:26:58;101764.80;;;17.58
71649;BMP180;59492;45.638;11.714;2023-02-19T09:29:25;101756.60;;;17.56
71649;BMP180;59492;45.638;11.714;2023-02-19T09:31:55;101763.60;;;17.56
71649;BMP180;59492;45.638;11.714;2023-02-19T09:34:23;101772.20;;;17.52
71649;BMP180;59492;45.638;11.714;2023-02-19T09:36:49;101773.20;;;17.50
71649;BMP180;59492;45.638;11.714;2023-02-19T09:39:15;101777.00;;;17.52
71649;BMP180;59492;45.638;11.714;2023-02-19T09:41:47;101782.20;;;17.52
71649;BMP180;59492;45.638;11.714;2023-02-19T09:44:41;101780.40;;;17.50
71649;BMP180;59492;45.638;11.714;2023-02-19T09:47:20;101783.00;;;17.50
71649;BMP180;59492;45.638;11.714;2023-02-19T09:49:51;101778.20;;;17.50
71649;BMP180;59492;45.638;11.714;2023-02-19T09:52:49;101779.60;;;17.60
71649;BMP180;59492;45.638;11.714;2023-02-19T09:55:29;101785.20;;;17.60
71649;BMP180;59492;45.638;11.714;2023-02-19T09:57:58;101785.60;;;17.60
71649;BMP180;59492;45.638;11.714;2023-02-19T10:00:26;101787.40;;;17.60
71649;BMP180;59492;45.638;11.714;2023-02-19T10:03:01;101792.20;;;17.60
71649;BMP180;59492;45.638;11.714;2023-02-19T10:05:28;101791.20;;;17.60
71649;BMP180;59492;45.638;11.714;2023-02-19T10:08:03;101791.20;;;17.60
71649;BMP180;59492;45.638;11.714;2023-02-19T10:10:32;101786.40;;;17.58
71649;BMP180;59492;45.638;11.714;2023-02-19T10:15:44;101788.00;;;17.56
71649;BMP180;59492;45.638;11.714;2023-02-19T10:18:11;101786.20;;;17.54
71649;BMP180;59492;45.638;11.714;2023-02-19T10:20:39;101778.20;;;17.58
71649;BMP180;59492;45.638;11.714;2023-02-19T10:23:07;101777.80;;;17.54
71649;BMP180;59492;45.638;11.714;2023-02-19T10:25:34;101781.00;;;17.56
71649;BMP180;59492;45.638;11.714;2023-02-19T10:28:00;101775.00;;;17.60
71649;BMP180;59492;45.638;11.714;2023-02-19T10:30:34;101768.80;;;17.58
71649;BMP180;59492;45.638;11.714;2023-02-19T10:33:07;101775.60;;;17.60
71649;BMP180;59492;45.638;11.714;2023-02-19T10:35:58;101769.80;;;17.50
71649;BMP180;59492;45.638;11.714;2023-02-19T10:38:32;101763.20;;;17.50
71649;BMP180;59492;45.638;11.714;2023-02-19T10:41:11;101759.80;;;17.60
71649;BMP180;59492;45.638;11.714;2023-02-19T10:43:44;101759.60;;;17.60
71649;BMP180;59492;45.638;11.714;2023-02-19T10:46:18;101757.20;;;17.60
71649;BMP180;59492;45.638;11.714;2023-02-19T10:48:51;101761.60;;;17.60
71649;BMP180;59492;45.638;11.714;2023-02-19T10:51:18;101761.60;;;17.60
71649;BMP180;59492;45.638;11.714;2023-02-19T10:54:02;101756.40;;;17.60
71649;BMP180;59492;45.638;11.714;2023-02-19T10:56:29;101757.80;;;17.62
71649;BMP180;59492;45.638;11.714;2023-02-19T11:02:01;101752.20;;;17.60
71649;BMP180;59492;45.638;11.714;2023-02-19T11:04:29;101755.40;;;17.60
71649;BMP180;59492;45.638;11.714;2023-02-19T11:07:19;101752.40;;;17.60
71649;BMP180;59492;45.638;11.714;2023-02-19T11:09:48;101742.00;;;17.60
71649;BMP180;59492;45.638;11.714;2023-02-19T11:12:27;101738.80;;;17.60
71649;BMP180;59492;45.638;11.714;2023-02-19T11:14:54;101741.00;;;17.62
71649;BMP180;59492;45.638;11.714;2023-02-19T11:17:25;101734.80;;;17.70
71649;BMP180;59492;45.638;11.714;2023-02-19T11:19:57;101727.60;;;17.72
71649;BMP180;59492;45.638;11.714;2023-02-19T11:22:47;101721.80;;;17.70
71649;BMP180;59492;45.638;11.714;2023-02-19T11:28:17;101715.20;;;17.70
71649;BMP180;59492;45.638;11.714;2023-02-19T11:30:46;101713.00;;;17.68
71649;BMP180;59492;45.638;11.714;2023-02-19T11:35:52;101707.00;;;17.70
71649;BMP180;59492;45.638;11.714;2023-02-19T11:38:20;101703.40;;;17.68
71649;BMP180;59492;45.638;11.714;2023-02-19T11:41:08;101700.60;;;17.70
71649;BMP180;59492;45.638;11.714;2023-02-19T11:52:36;101694.60;;;17.60
71649;BMP180;59492;45.638;11.714;2023-02-19T12:00:59;101686.00;;;17.70
71649;BMP180;59492;45.638;11.714;2023-02-19T12:09:22;101685.20;;;17.68
71649;BMP180;59492;45.638;11.714;2023-02-19T12:15:11;101681.20;;;17.60
71649;BMP180;59492;45.638;11.714;2023-02-19T12:18:41;101678.00;;;17.60
71649;BMP180;59492;45.638;11.714;2023-02-19T12:29:35;101656.00;;;17.60
71649;BMP180;59492;45.638;11.714;2023-02-19T12:41:11;101650.00;;;17.60
71649;BMP180;59492;45.638;11.714;2023-02-19T12:43:45;101643.20;;;17.60
71649;BMP180;59492;45.638;11.714;2023-02-19T12:46:31;101642.00;;;17.70
71649;BMP180;59492;45.638;11.714;2023-02-19T12:49:13;101638.40;;;17.70
71649;BMP180;59492;45.638;11.714;2023-02-19T12:51:49;101632.60;;;17.70
71649;BMP180;59492;45.638;11.714;2023-02-19T12:54:33;101631.60;;;17.70
71649;BMP180;59492;45.638;11.714;2023-02-19T12:57:12;101635.40;;;17.70
71649;BMP180;59492;45.638;11.714;2023-02-19T13:02:32;101635.00;;;17.70
71649;BMP180;59492;45.638;11.714;2023-02-19T13:05:24;101631.20;;;17.70
71649;BMP180;59492;45.638;11.714;2023-02-19T13:08:09;101630.60;;;17.70
71649;BMP180;59492;45.638;11.714;2023-02-19T13:10:44;101634.60;;;17.60
71649;BMP180;59492;45.638;11.714;2023-02-19T13:13:30;101628.00;;;17.62
71649;BMP180;59492;45.638;11.714;2023-02-19T13:16:06;101623.80;;;17.64
71649;BMP180;59492;45.638;11.714;2023-02-19T13:18:49;101618.20;;;17.66
71649;BMP180;59492;45.638;11.714;2023-02-19T13:21:16;101617.20;;;17.70
71649;BMP180;59492;45.638;11.714;2023-02-19T13:24:15;101622.00;;;17.68
71649;BMP180;59492;45.638;11.714;2023-02-19T13:29:42;101615.20;;;17.70
71649;BMP180;59492;45.638;11.714;2023-02-19T13:35:25;101614.80;;;17.80
71649;BMP180;59492;45.638;11.714;2023-02-19T13:38:03;101597.20;;;17.80
71649;BMP180;59492;45.638;11.714;2023-02-19T13:40:55;101600.00;;;17.80
71649;BMP180;59492;45.638;11.714;2023-02-19T13:43:26;101602.00;;;17.80
71649;BMP180;59492;45.638;11.714;2023-02-19T13:45:58;101598.80;;;17.80
71649;BMP180;59492;45.638;11.714;2023-02-19T13:48:31;101604.40;;;17.80
71649;BMP180;59492;45.638;11.714;2023-02-19T14:09:51;101589.60;;;17.80
71649;BMP180;59492;45.638;11.714;2023-02-19T14:12:18;101590.20;;;17.90
71649;BMP180;59492;45.638;11.714;2023-02-19T14:14:46;101587.40;;;17.90
71649;BMP180;59492;45.638;11.714;2023-02-19T14:17:43;101584.20;;;18.00
71649;BMP180;59492;45.638;11.714;2023-02-19T14:23:15;101593.40;;;17.92
71649;BMP180;59492;45.638;11.714;2023-02-19T14:25:43;101586.00;;;17.98
71649;BMP180;59492;45.638;11.714;2023-02-19T14:28:33;101586.20;;;18.00
71649;BMP180;59492;45.638;11.714;2023-02-19T14:31:29;101584.00;;;17.98
71649;BMP180;59492;45.638;11.714;2023-02-19T14:34:02;101582.40;;;17.90
71649;BMP180;59492;45.638;11.714;2023-02-19T14:39:14;101572.60;;;18.00
71649;BMP180;59492;45.638;11.714;2023-02-19T14:41:49;101566.00;;;18.00
71649;BMP180;59492;45.638;11.714;2023-02-19T14:44:27;101566.00;;;17.98
71649;BMP180;59492;45.638;11.714;2023-02-19T14:47:04;101569.20;;;18.00
71649;BMP180;59492;45.638;11.714;2023-02-19T14:55:13;101583.20;;;17.98
71649;BMP180;59492;45.638;11.714;2023-02-19T14:57:43;101585.40;;;17.92
71649;BMP180;59492;45.638;11.714;2023-02-19T15:02:52;101587.00;;;18.10
71649;BMP180;59492;45.638;11.714;2023-02-19T15:05:25;101590.60;;;18.08
71649;BMP180;59492;45.638;11.714;2023-02-19T15:07:57;101595.60;;;18.04
71649;BMP180;59492;45.638;11.714;2023-02-19T15:10:26;101600.60;;;18.00
71649;BMP180;59492;45.638;11.714;2023-02-19T15:12:58;101590.00;;;18.00
71649;BMP180;59492;45.638;11.714;2023-02-19T15:15:26;101590.20;;;18.02
71649;BMP180;59492;45.638;11.714;2023-02-19T15:17:54;101594.40;;;18.02
71649;BMP180;59492;45.638;11.714;2023-02-19T15:20:29;101601.80;;;18.00
71649;BMP180;59492;45.638;11.714;2023-02-19T15:22:57;101613.60;;;18.00
71649;BMP180;59492;45.638;11.714;2023-02-19T15:25:32;101616.00;;;18.00
71649;BMP180;59492;45.638;11.714;2023-02-19T15:30:52;101610.20;;;18.00
71649;BMP180;59492;45.638;11.714;2023-02-19T15:33:31;101608.40;;;18.00
71649;BMP180;59492;45.638;11.714;2023-02-19T15:36:00;101615.40;;;18.00
71649;BMP180;59492;45.638;11.714;2023-02-19T15:38:28;101615.80;;;18.00
71649;BMP180;59492;45.638;11.714;2023-02-19T15:40:54;101623.00;;;18.00
71649;BMP180;59492;45.638;11.714;2023-02-19T15:43:49;101627.40;;;18.00
71649;BMP180;59492;45.638;11.714;2023-02-19T15:46:20;101628.00;;;18.02
71649;BMP180;59492;45.638;11.714;2023-02-19T15:51:46;101627.20;;;18.00
71649;BMP180;59492;45.638;11.714;2023-02-19T15:56:52;101638.60;;;18.00
71649;BMP180;59492;45.638;11.714;2023-02-19T15:59:40;101640.60;;;18.00
71649;BMP180;59492;45.638;11.714;2023-02-19T16:02:12;101638.40;;;18.00
71649;BMP180;59492;45.638;11.714;2023-02-19T16:04:40;101640.40;;;18.00
71649;BMP180;59492;45.638;11.714;2023-02-19T16:07:28;101639.80;;;18.00
71649;BMP180;59492;45.638;11.714;2023-02-19T16:10:22;101633.80;;;18.00
71649;BMP180;59492;45.638;11.714;2023-02-19T16:13:00;101634.00;;;18.00
71649;BMP180;59492;45.638;11.714;2023-02-19T16:15:28;101626.20;;;18.00
71649;BMP180;59492;45.638;11.714;2023-02-19T16:17:55;101629.80;;;18.00